Time;durP1;ratioP1;P1;durP2;ratioP2;P2;SDS_P1;SDS_P2;PMS_P1;PMS_P2;Temp;Humidity;BMP_temperature;BMP_pressure;BME280_temperature;BME280_humidity;BME280_pressure;Samples;Min_cycle;Max_cycle;Signal;HPM_P1;HPM_P2
2021/05/08 00:00:45;;;;;;;;;;;;;;;12.57;100.00;99679.55;1713968;84;20165;-76
2021/05/08 00:03:13;;;;;;;;;;;;;;;12.46;100.00;99670.54;1749547;82;20178;-74
2021/05/08 00:05:40;;;;;;;;;;;;;;;12.34;100.00;99669.70;1754751;82;20194;-75
2021/05/08 00:08:08;;;;;;;;;;;;;;;12.23;100.00;99672.05;1754985;82;20138;-77
2021/05/08 00:10:35;;;;;;;;;;;;;;;12.12;100.00;99662.03;1755052;82;20264;-78
2021/05/08 00:13:03;;;;;;;;;;;;;;;12.04;100.00;99661.30;1724326;83;20148;-79
2021/05/08 00:15:30;;;;;;;;;;;;;;;11.99;100.00;99675.44;1724369;83;20401;-77
2021/05/08 00:17:58;;;;;;;;;;;;;;;11.93;100.00;99674.33;1724456;83;20156;-77
2021/05/08 00:20:26;;;;;;;;;;;;;;;11.89;100.00;99682.97;1724678;83;20410;-78
2021/05/08 00:22:54;;;;;;;;;;;;;;;11.84;100.00;99684.88;1724652;83;20121;-79
2021/05/08 00:25:21;;;;;;;;;;;;;;;11.81;100.00;99687.13;1724737;83;20220;-78
2021/05/08 00:27:49;;;;;;;;;;;;;;;11.78;100.00;99697.31;1722749;83;20150;-79
2021/05/08 00:30:17;;;;;;;;;;;;;;;11.77;100.00;99688.02;1715017;84;20208;-78
2021/05/08 00:32:45;;;;;;;;;;;;;;;11.74;100.00;99685.70;1715031;84;20264;-79
2021/05/08 00:35:13;;;;;;;;;;;;;;;11.71;100.00;99697.73;1715345;84;20145;-79
2021/05/08 00:37:40;;;;;;;;;;;;;;;11.68;100.00;99692.69;1715687;84;20225;-69
2021/05/08 00:40:09;;;;;;;;;;;;;;;11.68;100.00;99688.63;1723170;83;20176;-68
2021/05/08 00:42:36;;;;;;;;;;;;;;;11.68;100.00;99689.14;1725878;83;20141;-70
2021/05/08 00:45:06;;;;;;;;;;;;;;;11.66;100.00;99704.22;1727450;83;20132;-68
2021/05/08 00:47:37;;;;;;;;;;;;;;;11.64;100.00;99694.62;1698998;83;20156;-69
2021/05/08 00:50:06;;;;;;;;;;;;;;;11.64;100.00;99704.09;1691033;85;20277;-70
2021/05/08 00:52:33;;;;;;;;;;;;;;;11.64;100.00;99687.84;1690888;85;20231;-69
2021/05/08 00:55:00;;;;;;;;;;;;;;;11.64;100.00;99664.83;1689920;84;20146;-69
2021/05/08 00:57:29;;;;;;;;;;;;;;;11.63;100.00;99658.55;1737440;82;20130;-68
2021/05/08 00:59:58;;;;;;;;;;;;;;;11.63;100.00;99651.78;1735966;83;20174;-69
2021/05/08 01:02:25;;;;;;;;;;;;;;;11.62;100.00;99652.83;1739806;81;20219;-69
2021/05/08 01:04:54;;;;;;;;;;;;;;;11.60;100.00;99652.18;1722170;82;20143;-69
2021/05/08 01:07:23;;;;;;;;;;;;;;;11.58;100.00;99662.36;1749565;82;20167;-70
2021/05/08 01:09:50;;;;;;;;;;;;;;;11.57;100.00;99675.56;1754610;82;20156;-69
2021/05/08 01:12:18;;;;;;;;;;;;;;;11.55;100.00;99678.97;1745777;82;20408;-70
2021/05/08 01:14:49;;;;;;;;;;;;;;;11.53;100.00;99681.03;1745692;81;20168;-69
2021/05/08 01:17:17;;;;;;;;;;;;;;;11.53;100.00;99670.20;1745795;82;20246;-70
2021/05/08 01:19:45;;;;;;;;;;;;;;;11.53;100.00;99667.49;1745767;82;20180;-70
2021/05/08 01:22:13;;;;;;;;;;;;;;;11.52;100.00;99663.09;1745853;82;20144;-69
2021/05/08 01:24:41;;;;;;;;;;;;;;;11.50;100.00;99651.09;1745732;82;20188;-70
2021/05/08 01:27:09;;;;;;;;;;;;;;;11.48;100.00;99649.09;1745660;82;20152;-69
2021/05/08 01:29:37;;;;;;;;;;;;;;;11.46;100.00;99617.30;1745554;82;20199;-70
2021/05/08 01:32:05;;;;;;;;;;;;;;;11.43;100.00;99611.42;1745654;82;20152;-69
2021/05/08 01:34:33;;;;;;;;;;;;;;;11.40;100.00;99604.50;1745851;82;20128;-69
2021/05/08 01:37:02;;;;;;;;;;;;;;;11.36;100.00;99589.15;1745594;82;20437;-69
2021/05/08 01:39:30;;;;;;;;;;;;;;;11.34;100.00;99592.56;1745688;82;20184;-70
2021/05/08 01:41:58;;;;;;;;;;;;;;;11.32;100.00;99585.14;1745714;82;20129;-70
2021/05/08 01:44:26;;;;;;;;;;;;;;;11.30;100.00;99572.32;1745766;82;20168;-69
2021/05/08 01:46:55;;;;;;;;;;;;;;;11.26;100.00;99557.49;1748747;81;20160;-69
2021/05/08 01:49:26;;;;;;;;;;;;;;;11.23;100.00;99555.15;1751213;82;20145;-69
2021/05/08 01:51:54;;;;;;;;;;;;;;;11.21;100.00;99540.45;1751570;82;20132;-69
2021/05/08 01:54:22;;;;;;;;;;;;;;;11.21;100.00;99544.51;1751250;81;20409;-70
2021/05/08 01:56:50;;;;;;;;;;;;;;;11.21;100.00;99558.04;1749744;81;20144;-70
2021/05/08 01:59:20;;;;;;;;;;;;;;;11.18;100.00;99549.45;1748417;82;20235;-70
2021/05/08 02:01:47;;;;;;;;;;;;;;;11.17;100.00;99554.53;1750849;80;20135;-69
2021/05/08 02:04:16;;;;;;;;;;;;;;;11.17;100.00;99552.69;1766298;81;20168;-70
2021/05/08 02:06:47;;;;;;;;;;;;;;;11.15;100.00;99552.00;1766407;81;20418;-69
2021/05/08 02:09:16;;;;;;;;;;;;;;;11.17;100.00;99542.35;1763562;81;20129;-70
2021/05/08 02:11:46;;;;;;;;;;;;;;;11.17;100.00;99532.88;1763566;81;20180;-69
2021/05/08 02:14:13;;;;;;;;;;;;;;;11.19;100.00;99533.53;1766657;81;20398;-70
2021/05/08 02:16:40;;;;;;;;;;;;;;;11.20;100.00;99546.88;1766383;81;20132;-69
2021/05/08 02:19:09;;;;;;;;;;;;;;;11.21;100.00;99547.22;1766271;81;20232;-70
2021/05/08 02:21:37;;;;;;;;;;;;;;;11.22;100.00;99556.16;1766514;81;20172;-69
2021/05/08 02:24:06;;;;;;;;;;;;;;;11.23;100.00;99547.55;1766566;81;20164;-70
2021/05/08 02:26:34;;;;;;;;;;;;;;;11.21;100.00;99542.33;1766359;81;20128;-70
2021/05/08 02:29:02;;;;;;;;;;;;;;;11.21;100.00;99540.97;1766312;81;20412;-69
2021/05/08 02:31:30;;;;;;;;;;;;;;;11.23;100.00;99548.38;1766397;81;20132;-70
2021/05/08 02:33:58;;;;;;;;;;;;;;;11.25;100.00;99546.84;1766195;81;20136;-68
2021/05/08 02:36:26;;;;;;;;;;;;;;;11.24;100.00;99543.28;1763926;81;20180;-69
2021/05/08 02:38:53;;;;;;;;;;;;;;;11.26;100.00;99539.03;1748853;81;20133;-70
2021/05/08 02:41:21;;;;;;;;;;;;;;;11.29;100.00;99540.85;1749110;81;20128;-70
2021/05/08 02:43:49;;;;;;;;;;;;;;;11.30;100.00;99538.48;1750913;82;20152;-70
2021/05/08 02:46:17;;;;;;;;;;;;;;;11.32;100.00;99538.30;1749970;81;20187;-68
2021/05/08 02:48:45;;;;;;;;;;;;;;;11.31;100.00;99545.56;1749038;82;20165;-69
2021/05/08 02:51:12;;;;;;;;;;;;;;;11.31;100.00;99544.20;1748754;81;20156;-70
2021/05/08 02:53:41;;;;;;;;;;;;;;;11.32;100.00;99541.84;1748410;81;20234;-70
2021/05/08 02:56:09;;;;;;;;;;;;;;;11.34;100.00;99533.02;1748395;82;20133;-70
2021/05/08 02:58:40;;;;;;;;;;;;;;;11.36;100.00;99533.66;1749076;82;20129;-70
2021/05/08 03:01:08;;;;;;;;;;;;;;;11.36;100.00;99530.13;1748963;81;20171;-70
2021/05/08 03:03:35;;;;;;;;;;;;;;;11.36;100.00;99530.95;1763325;81;20460;-70
2021/05/08 03:06:04;;;;;;;;;;;;;;;11.37;100.00;99525.88;1769174;81;20133;-70
2021/05/08 03:08:36;;;;;;;;;;;;;;;11.39;100.00;99527.87;1774586;81;20137;-70
2021/05/08 03:11:05;;;;;;;;;;;;;;;11.39;100.00;99517.05;1769539;81;20156;-70
2021/05/08 03:13:35;;;;;;;;;;;;;;;11.43;100.00;99515.32;1730978;83;20175;-69
2021/05/08 03:16:03;;;;;;;;;;;;;;;11.43;100.00;99514.80;1714137;83;20153;-70
2021/05/08 03:18:32;;;;;;;;;;;;;;;11.44;100.00;99519.20;1696643;84;20129;-70
2021/05/08 03:21:00;;;;;;;;;;;;;;;11.45;100.00;99518.16;1711561;84;20442;-71
2021/05/08 03:23:28;;;;;;;;;;;;;;;11.47;100.00;99515.26;1711675;84;20196;-68
2021/05/08 03:25:56;;;;;;;;;;;;;;;11.47;100.00;99530.15;1711639;83;20168;-69
2021/05/08 03:28:24;;;;;;;;;;;;;;;11.46;100.00;99525.26;1711763;84;20204;-70
2021/05/08 03:30:51;;;;;;;;;;;;;;;11.47;100.00;99515.26;1691696;84;20125;-70
2021/05/08 03:33:20;;;;;;;;;;;;;;;11.46;100.00;99515.78;1711675;84;20157;-70
2021/05/08 03:35:47;;;;;;;;;;;;;;;11.44;100.00;99508.86;1711744;84;20141;-70
2021/05/08 03:38:15;;;;;;;;;;;;;;;11.44;100.00;99513.78;1696770;84;20302;-70
2021/05/08 03:40:42;;;;;;;;;;;;;;;11.45;100.00;99506.49;1695474;85;20147;-70
2021/05/08 03:43:10;;;;;;;;;;;;;;;11.47;100.00;99507.14;1695811;85;20140;-70
2021/05/08 03:45:38;;;;;;;;;;;;;;;11.48;100.00;99518.30;1695678;85;20159;-70
2021/05/08 03:48:06;;;;;;;;;;;;;;;11.49;100.00;99513.20;1695609;85;20171;-70
2021/05/08 03:50:34;;;;;;;;;;;;;;;11.50;100.00;99518.95;1695670;85;20172;-70
2021/05/08 03:53:02;;;;;;;;;;;;;;;11.51;100.00;99525.53;1695557;85;20250;-71
2021/05/08 03:55:34;;;;;;;;;;;;;;;11.53;100.00;99536.17;1695759;85;20187;-69
2021/05/08 03:57:59;;;;;;;;;;;;;;;11.52;100.00;99531.78;1695651;85;20156;-70
2021/05/08 04:00:27;;;;;;;;;;;;;;;11.54;100.00;99529.22;1695728;85;20171;-70
2021/05/08 04:02:55;;;;;;;;;;;;;;;11.55;100.00;99521.93;1691944;85;20433;-70
2021/05/08 04:05:22;;;;;;;;;;;;;;;11.57;100.00;99519.86;1683891;85;20453;-72
2021/05/08 04:07:51;;;;;;;;;;;;;;;11.59;100.00;99520.51;1683825;85;20197;-69
2021/05/08 04:10:18;;;;;;;;;;;;;;;11.59;100.00;99513.74;1684186;85;20168;-76
2021/05/08 04:12:48;;;;;;;;;;;;;;;11.58;100.00;99516.14;1684589;85;20421;-78
2021/05/08 04:15:15;;;;;;;;;;;;;;;11.59;100.00;99511.86;1684871;85;20187;-78
2021/05/08 04:17:43;;;;;;;;;;;;;;;11.61;100.00;99511.67;1684842;85;20156;-80
2021/05/08 04:20:13;;;;;;;;;;;;;;;11.61;100.00;99511.67;1684658;85;20163;-79
2021/05/08 04:22:40;;;;;;;;;;;;;;;11.63;100.00;99515.55;1685034;85;20450;-79
2021/05/08 04:25:08;;;;;;;;;;;;;;;11.63;100.00;99517.73;1684843;85;20152;-77
2021/05/08 04:27:36;;;;;;;;;;;;;;;11.62;100.00;99516.08;1684846;85;20207;-77
2021/05/08 04:30:05;;;;;;;;;;;;;;;11.64;100.00;99519.42;1685260;84;20176;-78
2021/05/08 04:32:33;;;;;;;;;;;;;;;11.64;100.00;99516.72;1685374;85;20176;-79
2021/05/08 04:35:00;;;;;;;;;;;;;;;11.65;100.00;99508.06;1685643;85;20168;-77
2021/05/08 04:37:28;;;;;;;;;;;;;;;11.65;100.00;99508.06;1685514;85;20255;-79
2021/05/08 04:39:56;;;;;;;;;;;;;;;11.65;100.00;99504.87;1685610;85;20187;-78
2021/05/08 04:42:23;;;;;;;;;;;;;;;11.67;100.00;99504.65;1685750;85;20192;-77
2021/05/08 04:44:53;;;;;;;;;;;;;;;11.67;100.00;99497.87;1685829;85;20193;-79
2021/05/08 04:47:21;;;;;;;;;;;;;;;11.69;100.00;99495.32;1685640;85;20231;-80
2021/05/08 04:49:54;;;;;;;;;;;;;;;11.71;100.00;99494.61;1685650;85;20258;-80
2021/05/08 04:52:19;;;;;;;;;;;;;;;11.75;100.00;99492.35;1683850;85;20121;-79
2021/05/08 04:54:48;;;;;;;;;;;;;;;11.82;100.00;99493.27;1686506;84;20156;-81
2021/05/08 04:57:15;;;;;;;;;;;;;;;11.86;100.00;99491.01;1687076;83;20180;-84
2021/05/08 04:59:43;;;;;;;;;;;;;;;11.92;100.00;99491.11;1686354;84;20259;-78
2021/05/08 05:02:10;;;;;;;;;;;;;;;11.95;100.00;99482.61;1684915;85;20155;-79
2021/05/08 05:04:38;;;;;;;;;;;;;;;12.01;100.00;99476.92;1684606;85;20152;-79
2021/05/08 05:07:05;;;;;;;;;;;;;;;12.02;100.00;99475.87;1684663;85;20207;-76
2021/05/08 05:09:34;;;;;;;;;;;;;;;12.03;100.00;99473.49;1684946;85;20167;-79
2021/05/08 05:12:01;;;;;;;;;;;;;;;12.06;100.00;99473.64;1684930;85;20429;-77
2021/05/08 05:14:29;;;;;;;;;;;;;;;12.06;100.00;99475.00;1685079;85;20176;-76
2021/05/08 05:16:57;;;;;;;;;;;;;;;12.08;100.00;99474.28;1685185;85;20183;-78
2021/05/08 05:19:24;;;;;;;;;;;;;;;12.08;100.00;99462.91;1685192;85;20251;-76
2021/05/08 05:21:52;;;;;;;;;;;;;;;12.08;100.00;99475.11;1684891;85;20167;-77
2021/05/08 05:24:20;;;;;;;;;;;;;;;12.09;100.00;99467.31;1684924;85;20160;-77
2021/05/08 05:26:49;;;;;;;;;;;;;;;12.11;100.00;99461.67;1684930;85;20258;-81
2021/05/08 05:29:16;;;;;;;;;;;;;;;12.10;100.00;99454.59;1685045;85;20145;-75
2021/05/08 05:31:44;;;;;;;;;;;;;;;12.06;100.00;99446.55;1698377;84;20240;-78
2021/05/08 05:34:13;;;;;;;;;;;;;;;12.04;100.00;99451.30;1703445;83;20217;-75
2021/05/08 05:36:41;;;;;;;;;;;;;;;12.01;100.00;99472.86;1706091;83;20140;-76
2021/05/08 05:39:09;;;;;;;;;;;;;;;11.99;100.00;99472.22;1705536;84;20329;-71
2021/05/08 05:41:37;;;;;;;;;;;;;;;11.98;100.00;99468.34;1697954;84;20193;-71
2021/05/08 05:44:06;;;;;;;;;;;;;;;11.98;100.00;99457.50;1701312;83;20290;-73
2021/05/08 05:46:33;;;;;;;;;;;;;;;12.00;100.00;99446.78;1722007;83;20418;-71
2021/05/08 05:49:01;;;;;;;;;;;;;;;12.02;100.00;99445.23;1704893;83;20142;-69
2021/05/08 05:51:29;;;;;;;;;;;;;;;12.02;100.00;99454.72;1696162;83;20477;-69
2021/05/08 05:53:56;;;;;;;;;;;;;;;12.01;100.00;99445.77;1701184;83;20264;-70
2021/05/08 05:56:25;;;;;;;;;;;;;;;12.00;100.00;99449.48;1712371;83;20134;-68
2021/05/08 05:58:53;;;;;;;;;;;;;;;12.01;100.00;99465.25;1723818;83;20137;-68
2021/05/08 06:01:21;;;;;;;;;;;;;;;11.98;100.00;99455.62;1715437;83;20225;-69
2021/05/08 06:03:49;;;;;;;;;;;;;;;11.97;100.00;99433.64;1703744;83;20240;-70
2021/05/08 06:06:16;;;;;;;;;;;;;;;11.96;100.00;99442.80;1722627;83;20194;-69
2021/05/08 06:08:45;;;;;;;;;;;;;;;11.93;100.00;99441.82;1724600;83;20203;-69
2021/05/08 06:11:12;;;;;;;;;;;;;;;11.89;100.00;99442.69;1723601;83;20402;-70
2021/05/08 06:13:39;;;;;;;;;;;;;;;11.89;100.00;99439.98;1698588;83;20188;-71
2021/05/08 06:16:08;;;;;;;;;;;;;;;11.89;100.00;99442.69;1721536;83;20458;-69
2021/05/08 06:18:35;;;;;;;;;;;;;;;11.88;100.00;99436.97;1722902;83;20150;-69
2021/05/08 06:21:05;;;;;;;;;;;;;;;11.90;100.00;99430.01;1718122;83;20240;-70
2021/05/08 06:23:32;;;;;;;;;;;;;;;11.95;100.00;99438.39;1720395;83;20434;-69
2021/05/08 06:26:00;;;;;;;;;;;;;;;11.98;100.00;99438.54;1721576;83;20150;-68
2021/05/08 06:28:27;;;;;;;;;;;;;;;12.02;100.00;99422.20;1724254;83;20150;-70
2021/05/08 06:30:55;;;;;;;;;;;;;;;12.04;100.00;99410.65;1719849;83;20157;-68
2021/05/08 06:33:24;;;;;;;;;;;;;;;12.04;100.00;99406.09;1722304;83;20185;-69
2021/05/08 06:35:52;;;;;;;;;;;;;;;12.04;100.00;99419.64;1721523;83;20598;-69
2021/05/08 06:38:20;;;;;;;;;;;;;;;12.03;100.00;99423.37;1720737;83;20500;-67
2021/05/08 06:40:49;;;;;;;;;;;;;;;12.02;100.00;99405.95;1721171;83;20244;-69
2021/05/08 06:43:16;;;;;;;;;;;;;;;12.02;100.00;99417.61;1726347;83;20387;-70
2021/05/08 06:45:44;;;;;;;;;;;;;;;12.03;100.00;99416.59;1720333;83;20252;-70
2021/05/08 06:48:13;;;;;;;;;;;;;;;12.07;100.00;99400.78;1721114;83;20135;-69
2021/05/08 06:50:49;;;;;;;;;;;;;;;12.07;100.00;99407.03;1722536;83;20237;-71
2021/05/08 06:53:16;;;;;;;;;;;;;;;12.08;100.00;99402.47;1722653;83;20467;-69
2021/05/08 06:55:44;;;;;;;;;;;;;;;12.09;100.00;99398.21;1721698;83;20550;-69
2021/05/08 06:58:12;;;;;;;;;;;;;;;12.13;100.00;99398.13;1725686;83;20147;-69
2021/05/08 07:00:41;;;;;;;;;;;;;;;12.22;100.00;99392.57;1721685;83;20471;-69
2021/05/08 07:03:09;;;;;;;;;;;;;;;12.29;100.00;99390.22;1720124;83;20176;-69
2021/05/08 07:05:37;;;;;;;;;;;;;;;12.38;100.00;99400.39;1714914;83;20533;-69
2021/05/08 07:08:07;;;;;;;;;;;;;;;12.45;100.00;99409.93;1710802;83;20682;-69
2021/05/08 07:10:49;;;;;;;;;;;;;;;12.50;100.00;99403.36;1709955;83;20208;-70
2021/05/08 07:13:24;;;;;;;;;;;;;;;12.60;100.00;99396.24;1797039;77;20204;-69
2021/05/08 07:15:56;;;;;;;;;;;;;;;12.62;100.00;99413.14;1791616;79;20285;-68
2021/05/08 07:18:24;;;;;;;;;;;;;;;12.65;100.00;99408.69;1786186;79;20124;-69
2021/05/08 07:20:52;;;;;;;;;;;;;;;12.69;100.00;99420.80;1794871;79;20161;-69
2021/05/08 07:23:21;;;;;;;;;;;;;;;12.70;100.00;99412.47;1787702;79;20433;-69
2021/05/08 07:25:48;;;;;;;;;;;;;;;12.72;100.00;99413.10;1780043;79;20228;-69
2021/05/08 07:28:23;;;;;;;;;;;;;;;12.75;100.00;99409.16;1794132;79;20440;-70
2021/05/08 07:30:52;;;;;;;;;;;;;;;12.73;100.00;99409.36;1801224;79;20193;-70
2021/05/08 07:33:20;;;;;;;;;;;;;;;12.73;100.00;99393.09;1793496;78;20402;-70
2021/05/08 07:35:48;;;;;;;;;;;;;;;12.75;100.00;99396.09;1792547;79;20561;-71
2021/05/08 07:38:16;;;;;;;;;;;;;;;12.77;100.00;99382.67;1788007;79;20172;-69
2021/05/08 07:40:50;;;;;;;;;;;;;;;12.78;100.00;99370.77;1777557;79;20158;-69
2021/05/08 07:43:14;;;;;;;;;;;;;;;12.82;100.00;99355.78;1779156;79;20137;-71
2021/05/08 07:45:41;;;;;;;;;;;;;;;12.84;100.00;99370.50;1796163;79;20172;-69
2021/05/08 07:48:09;;;;;;;;;;;;;;;12.87;100.00;99356.50;1793859;79;20163;-68
2021/05/08 07:50:37;;;;;;;;;;;;;;;12.92;100.00;99364.88;1779978;79;20451;-72
2021/05/08 07:53:04;;;;;;;;;;;;;;;12.98;100.00;99364.08;1795714;79;20136;-68
2021/05/08 07:55:32;;;;;;;;;;;;;;;13.03;100.00;99360.23;1785136;79;20137;-70
2021/05/08 07:57:59;;;;;;;;;;;;;;;13.15;100.00;99369.14;1778834;79;20191;-69
2021/05/08 08:00:29;;;;;;;;;;;;;;;13.28;100.00;99375.45;1795421;79;20129;-69
2021/05/08 08:02:56;;;;;;;;;;;;;;;13.42;100.00;99369.56;1791703;79;20170;-71
2021/05/08 08:05:24;;;;;;;;;;;;;;;13.50;100.00;99371.23;1780750;79;20156;-69
2021/05/08 08:07:52;;;;;;;;;;;;;;;13.56;100.00;99341.88;1781497;79;20402;-69
2021/05/08 08:10:20;;;;;;;;;;;;;;;13.65;100.00;99356.09;1794691;79;20235;-70
2021/05/08 08:12:49;;;;;;;;;;;;;;;13.71;100.00;99351.73;1777607;79;20228;-69
2021/05/08 08:15:18;;;;;;;;;;;;;;;13.73;100.00;99357.26;1782627;79;20393;-70
2021/05/08 08:17:46;;;;;;;;;;;;;;;13.75;100.00;99355.16;1788384;79;20161;-70
2021/05/08 08:20:15;;;;;;;;;;;;;;;13.79;100.00;99355.58;1773297;79;20154;-71
2021/05/08 08:22:44;;;;;;;;;;;;;;;13.83;100.00;99342.73;1775639;79;20141;-71
2021/05/08 08:25:12;;;;;;;;;;;;;;;13.86;100.00;99341.47;1768344;79;20131;-69
2021/05/08 08:27:39;;;;;;;;;;;;;;;13.85;100.00;99346.08;1745313;81;20150;-70
2021/05/08 08:30:09;;;;;;;;;;;;;;;13.84;100.00;99343.03;1744048;82;20269;-69
2021/05/08 08:32:36;;;;;;;;;;;;;;;13.85;100.00;99350.16;1716261;82;20185;-69
2021/05/08 08:35:05;;;;;;;;;;;;;;;13.87;100.00;99363.53;1727952;82;20139;-70
2021/05/08 08:37:32;;;;;;;;;;;;;;;13.87;100.00;99355.38;1787853;79;20204;-68
2021/05/08 08:40:00;;;;;;;;;;;;;;;13.87;100.00;99359.46;1788172;79;20122;-71
2021/05/08 08:42:28;;;;;;;;;;;;;;;13.88;100.00;99363.00;1775517;79;20250;-69
2021/05/08 08:44:57;;;;;;;;;;;;;;;13.86;100.00;99359.99;1774928;79;20154;-71
2021/05/08 08:47:29;;;;;;;;;;;;;;;13.86;100.00;99361.35;1753521;81;20142;-70
2021/05/08 08:50:07;;;;;;;;;;;;;;;13.86;100.00;99378.16;1773271;79;20416;-68
2021/05/08 08:52:35;;;;;;;;;;;;;;;13.89;100.00;99376.92;1804571;79;20169;-66
2021/05/08 08:55:03;;;;;;;;;;;;;;;13.90;100.00;99392.16;1762574;79;20610;-69
2021/05/08 08:57:34;;;;;;;;;;;;;;;13.91;100.00;99382.45;1750629;81;20548;-72
2021/05/08 09:00:00;;;;;;;;;;;;;;;13.94;100.00;99371.70;1773717;79;20144;-71
2021/05/08 09:02:28;;;;;;;;;;;;;;;13.94;100.00;99394.27;1762144;81;20162;-71
2021/05/08 09:04:58;;;;;;;;;;;;;;;13.93;100.00;99401.27;1764163;79;20130;-72
2021/05/08 09:07:29;;;;;;;;;;;;;;;13.94;100.00;99394.80;1761734;79;20437;-70
2021/05/08 09:09:58;;;;;;;;;;;;;;;13.95;100.00;99390.52;1760371;79;20308;-70
2021/05/08 09:12:30;;;;;;;;;;;;;;;13.99;100.00;99400.45;1773175;80;20207;-69
2021/05/08 09:14:57;;;;;;;;;;;;;;;14.03;100.00;99407.95;1733905;82;20513;-71
2021/05/08 09:17:26;;;;;;;;;;;;;;;14.08;100.00;99418.71;1738074;82;20167;-70
2021/05/08 09:20:00;;;;;;;;;;;;;;;14.14;100.00;99409.20;1747660;80;20143;-70
2021/05/08 09:22:33;;;;;;;;;;;;;;;14.23;100.00;99423.42;1769333;81;20191;-71
2021/05/08 09:25:03;;;;;;;;;;;;;;;14.29;100.00;99423.96;1772308;81;20469;-70
2021/05/08 09:27:44;;;;;;;;;;;;;;;14.35;100.00;99435.88;1758218;81;20157;-70
2021/05/08 09:30:15;;;;;;;;;;;;;;;14.41;100.00;99420.92;1785206;79;20421;-69
2021/05/08 09:32:47;;;;;;;;;;;;;;;14.50;100.00;99409.80;1760156;79;20134;-70
2021/05/08 09:35:26;;;;;;;;;;;;;;;14.60;100.00;99406.15;1734496;82;20164;-69
2021/05/08 09:38:13;;;;;;;;;;;;;;;14.68;100.00;99411.38;1733671;82;20185;-71
2021/05/08 09:40:46;;;;;;;;;;;;;;;14.78;100.00;99410.91;1730339;82;20240;-71
2021/05/08 09:43:21;;;;;;;;;;;;;;;14.84;100.00;99398.33;1847684;77;20273;-71
2021/05/08 09:45:52;;;;;;;;;;;;;;;14.76;100.00;99370.30;1794437;79;20162;-70
2021/05/08 09:48:28;;;;;;;;;;;;;;;14.73;100.00;99369.90;1810635;79;20151;-70
2021/05/08 09:51:15;;;;;;;;;;;;;;;14.71;100.00;99374.19;1798853;79;20288;-70
2021/05/08 09:53:42;;;;;;;;;;;;;;;14.72;100.00;99364.16;1809492;79;20214;-70
2021/05/08 09:56:17;;;;;;;;;;;;;;;14.75;100.00;99363.71;1809446;79;20217;-69
2021/05/08 09:58:44;;;;;;;;;;;;;;;14.78;100.00;99357.84;1766633;81;20169;-72
2021/05/08 10:01:15;;;;;;;;;;;;;;;14.78;100.00;99348.32;1746303;81;20185;-73
2021/05/08 10:03:43;;;;;;;;;;;;;;;14.75;100.00;99352.83;1776144;80;20172;-68
2021/05/08 10:06:12;;;;;;;;;;;;;;;14.71;100.00;99339.34;1785424;80;20485;-69
2021/05/08 10:08:46;;;;;;;;;;;;;;;14.69;100.00;99340.92;1760846;80;20308;-69
2021/05/08 10:11:17;;;;;;;;;;;;;;;14.66;100.00;99329.13;1751162;81;20204;-70
2021/05/08 10:13:45;;;;;;;;;;;;;;;14.61;100.00;99328.94;1771270;81;20210;-71
2021/05/08 10:16:13;;;;;;;;;;;;;;;14.57;100.00;99338.52;1750449;81;20260;-69
2021/05/08 10:18:40;;;;;;;;;;;;;;;14.52;100.00;99348.70;1763485;81;20554;-74
2021/05/08 10:21:08;;;;;;;;;;;;;;;14.49;100.00;99359.18;1760202;80;20147;-74
2021/05/08 10:23:36;;;;;;;;;;;;;;;14.43;100.00;99367.67;1757047;81;20143;-75
2021/05/08 10:26:03;;;;;;;;;;;;;;;14.40;100.00;99373.00;1752103;81;20466;-74
2021/05/08 10:28:31;;;;;;;;;;;;;;;14.38;100.00;99388.69;1744357;81;20150;-74
2021/05/08 10:30:58;;;;;;;;;;;;;;;14.34;100.00;99393.39;1739811;81;20157;-76
2021/05/08 10:33:27;;;;;;;;;;;;;;;14.32;100.00;99390.88;1747837;81;20133;-72
2021/05/08 10:35:55;;;;;;;;;;;;;;;14.28;100.00;99389.64;1774637;79;20234;-73
2021/05/08 10:40:59;;;;;;;;;;;;;;;14.23;100.00;99398.95;1742432;81;20158;-73
2021/05/08 10:43:39;;;;;;;;;;;;;;;14.22;100.00;99399.48;1723676;82;20154;-72
2021/05/08 10:46:07;;;;;;;;;;;;;;;14.21;100.00;99403.77;1733484;82;20256;-72
2021/05/08 10:48:35;;;;;;;;;;;;;;;14.19;100.00;99399.07;1721086;83;20142;-72
2021/05/08 10:51:02;;;;;;;;;;;;;;;14.19;100.00;99405.87;1733452;82;20284;-72
2021/05/08 10:53:43;;;;;;;;;;;;;;;14.18;100.00;99401.47;1720487;83;20281;-71
2021/05/08 10:56:30;;;;;;;;;;;;;;;14.15;100.00;99409.53;1720519;82;20419;-73
2021/05/08 10:59:06;;;;;;;;;;;;;;;14.17;100.00;99400.64;1870489;76;20474;-72
2021/05/08 11:01:41;;;;;;;;;;;;;;;14.14;100.00;99382.55;1816548;78;20227;-72
2021/05/08 11:04:08;;;;;;;;;;;;;;;14.14;100.00;99373.03;1816405;78;20127;-73
2021/05/08 11:06:36;;;;;;;;;;;;;;;14.13;100.00;99372.20;1816469;79;20187;-72
2021/05/08 11:09:06;;;;;;;;;;;;;;;14.12;100.00;99366.45;1790642;79;20142;-73
2021/05/08 11:11:45;;;;;;;;;;;;;;;14.10;100.00;99348.69;1773692;80;20118;-73
2021/05/08 11:14:12;;;;;;;;;;;;;;;14.08;100.00;99343.45;1784192;80;20134;-72
2021/05/08 11:16:54;;;;;;;;;;;;;;;14.06;100.00;99345.55;1784524;80;20161;-72
2021/05/08 11:19:23;;;;;;;;;;;;;;;14.05;100.00;99349.31;1786104;77;20122;-72
2021/05/08 11:22:04;;;;;;;;;;;;;;;14.01;100.00;99342.09;1784438;80;20130;-73
2021/05/08 11:24:35;;;;;;;;;;;;;;;14.01;100.00;99339.38;1714447;84;20140;-72
2021/05/08 11:27:03;;;;;;;;;;;;;;;14.02;100.00;99327.97;1714481;84;20442;-72
2021/05/08 11:29:31;;;;;;;;;;;;;;;14.04;100.00;99324.02;1691081;84;20226;-74
2021/05/08 11:32:01;;;;;;;;;;;;;;;14.07;100.00;99324.10;1724576;82;20174;-72
2021/05/08 11:34:29;;;;;;;;;;;;;;;14.11;100.00;99320.44;1744178;82;20397;-75
2021/05/08 11:37:06;;;;;;;;;;;;;;;14.19;100.00;99330.56;1737817;82;20445;-72
2021/05/08 11:39:38;;;;;;;;;;;;;;;14.32;100.00;99329.70;1727274;83;20231;-72
2021/05/08 11:45:00;;;;;;;;;;;;;;;14.81;100.00;99319.32;1844954;76;20119;-72
2021/05/08 11:50:05;;;;;;;;;;;;;;;14.98;100.00;99303.34;1747182;82;20136;-73
2021/05/08 11:52:48;;;;;;;;;;;;;;;15.02;100.00;99295.57;1716047;84;20182;-75
2021/05/08 11:55:22;;;;;;;;;;;;;;;15.00;100.00;99290.34;1735659;81;20162;-73
2021/05/08 11:58:00;;;;;;;;;;;;;;;14.97;100.00;99288.88;1745656;82;20182;-72
2021/05/08 12:00:32;;;;;;;;;;;;;;;14.99;100.00;99292.20;1744029;82;20205;-73
2021/05/08 12:03:16;;;;;;;;;;;;;;;15.01;100.00;99291.99;1718553;84;20461;-73
2021/05/08 12:05:46;;;;;;;;;;;;;;;15.03;100.00;99306.22;1721617;82;20174;-77
2021/05/08 12:08:18;;;;;;;;;;;;;;;14.98;100.00;99300.08;1750991;81;20179;-76
2021/05/08 12:10:47;;;;;;;;;;;;;;;14.96;100.00;99287.72;1751576;82;20212;-75
2021/05/08 12:13:17;;;;;;;;;;;;;;;15.00;100.00;99297.14;1748402;82;20167;-76
2021/05/08 12:15:52;;;;;;;;;;;;;;;15.04;100.00;99293.46;1752367;82;20179;-76
2021/05/08 12:18:20;;;;;;;;;;;;;;;15.10;100.00;99289.84;1752520;82;20424;-76
2021/05/08 12:20:48;;;;;;;;;;;;;;;15.11;100.00;99288.27;1752554;82;20393;-76
2021/05/08 12:23:22;;;;;;;;;;;;;;;15.13;100.00;99297.05;1752897;82;20144;-76
2021/05/08 12:26:10;;;;;;;;;;;;;;;15.18;100.00;99305.41;1871922;76;20213;-76
2021/05/08 12:28:46;;;;;;;;;;;;;;;15.11;100.00;99294.25;1817592;78;20155;-77
2021/05/08 12:31:31;;;;;;;;;;;;;;;15.09;100.00;99299.09;1817763;78;20174;-76
2021/05/08 12:34:01;;;;;;;;;;;;;;;15.07;100.00;99296.58;1817708;79;20235;-76
2021/05/08 12:36:30;;;;;;;;;;;;;;;15.02;100.00;99299.66;1833772;78;20148;-76
2021/05/08 12:39:20;;;;;;;;;;;;;;;14.98;100.00;99301.98;1816042;79;20168;-74
2021/05/08 12:41:56;;;;;;;;;;;;;;;14.96;100.00;99308.14;1817593;79;20120;-75
2021/05/08 12:44:32;;;;;;;;;;;;;;;14.92;100.00;99312.36;1801969;79;20209;-76
2021/05/08 12:47:03;;;;;;;;;;;;;;;14.91;100.00;99311.53;1787803;78;20123;-75
2021/05/08 12:49:32;;;;;;;;;;;;;;;14.90;100.00;99310.38;1787560;78;20213;-75
2021/05/08 12:52:04;;;;;;;;;;;;;;;14.89;100.00;99312.78;1787620;80;20094;-76
2021/05/08 12:54:32;;;;;;;;;;;;;;;14.88;100.00;99315.22;1794680;79;20247;-77